sensor_id;sensor_type;location;lat;lon;timestamp;P1;durP1;ratioP1;P2;durP2;ratioP2
34497;SDS011;20744;50.938;7.286;2023-07-08T00:01:26;7.68;;;3.42;;
34497;SDS011;20744;50.938;7.286;2023-07-08T00:03:55;4.90;;;3.20;;
34497;SDS011;20744;50.938;7.286;2023-07-08T00:06:24;6.80;;;3.75;;
34497;SDS011;20744;50.938;7.286;2023-07-08T00:08:52;12.63;;;4.35;;
34497;SDS011;20744;50.938;7.286;2023-07-08T00:11:19;5.57;;;3.65;;
34497;SDS011;20744;50.938;7.286;2023-07-08T00:13:46;5.13;;;3.53;;
34497;SDS011;20744;50.938;7.286;2023-07-08T00:16:14;11.85;;;3.45;;
34497;SDS011;20744;50.938;7.286;2023-07-08T00:18:43;6.97;;;3.25;;
34497;SDS011;20744;50.938;7.286;2023-07-08T00:21:15;5.95;;;3.35;;
34497;SDS011;20744;50.938;7.286;2023-07-08T00:23:43;5.80;;;3.20;;
34497;SDS011;20744;50.938;7.286;2023-07-08T00:26:13;5.85;;;3.33;;
34497;SDS011;20744;50.938;7.286;2023-07-08T00:28:42;7.13;;;3.53;;
34497;SDS011;20744;50.938;7.286;2023-07-08T00:31:09;6.25;;;3.30;;
34497;SDS011;20744;50.938;7.286;2023-07-08T00:33:37;6.95;;;3.83;;
34497;SDS011;20744;50.938;7.286;2023-07-08T00:36:07;5.25;;;3.20;;
34497;SDS011;20744;50.938;7.286;2023-07-08T00:38:37;5.93;;;3.30;;
34497;SDS011;20744;50.938;7.286;2023-07-08T00:41:11;5.55;;;3.35;;
34497;SDS011;20744;50.938;7.286;2023-07-08T00:43:40;7.70;;;3.35;;
34497;SDS011;20744;50.938;7.286;2023-07-08T00:46:13;6.57;;;2.78;;
34497;SDS011;20744;50.938;7.286;2023-07-08T00:48:43;6.72;;;3.20;;
34497;SDS011;20744;50.938;7.286;2023-07-08T00:51:12;5.45;;;3.17;;
34497;SDS011;20744;50.938;7.286;2023-07-08T00:53:41;7.05;;;3.30;;
34497;SDS011;20744;50.938;7.286;2023-07-08T00:56:09;7.80;;;3.17;;
34497;SDS011;20744;50.938;7.286;2023-07-08T00:58:39;5.90;;;3.15;;
34497;SDS011;20744;50.938;7.286;2023-07-08T01:01:08;6.05;;;3.25;;
34497;SDS011;20744;50.938;7.286;2023-07-08T01:03:40;3.70;;;2.72;;
34497;SDS011;20744;50.938;7.286;2023-07-08T01:06:10;10.52;;;3.50;;
34497;SDS011;20744;50.938;7.286;2023-07-08T01:08:38;4.68;;;3.05;;
34497;SDS011;20744;50.938;7.286;2023-07-08T01:11:06;8.25;;;3.22;;
34497;SDS011;20744;50.938;7.286;2023-07-08T01:13:34;5.05;;;3.22;;
34497;SDS011;20744;50.938;7.286;2023-07-08T01:16:02;5.63;;;2.97;;
34497;SDS011;20744;50.938;7.286;2023-07-08T01:18:30;6.05;;;3.45;;
34497;SDS011;20744;50.938;7.286;2023-07-08T01:21:01;4.22;;;2.75;;
34497;SDS011;20744;50.938;7.286;2023-07-08T01:23:32;6.57;;;3.22;;
34497;SDS011;20744;50.938;7.286;2023-07-08T01:26:00;4.38;;;2.78;;
34497;SDS011;20744;50.938;7.286;2023-07-08T01:28:28;4.80;;;2.88;;
34497;SDS011;20744;50.938;7.286;2023-07-08T01:30:55;4.30;;;2.50;;
34497;SDS011;20744;50.938;7.286;2023-07-08T01:33:23;6.25;;;2.90;;
34497;SDS011;20744;50.938;7.286;2023-07-08T01:35:51;4.22;;;2.70;;
34497;SDS011;20744;50.938;7.286;2023-07-08T01:38:21;7.07;;;3.22;;
34497;SDS011;20744;50.938;7.286;2023-07-08T01:40:52;7.05;;;2.60;;
34497;SDS011;20744;50.938;7.286;2023-07-08T01:43:19;5.13;;;2.95;;
34497;SDS011;20744;50.938;7.286;2023-07-08T01:45:47;4.97;;;2.90;;
34497;SDS011;20744;50.938;7.286;2023-07-08T01:48:16;5.78;;;3.00;;
34497;SDS011;20744;50.938;7.286;2023-07-08T01:50:47;4.32;;;2.90;;
34497;SDS011;20744;50.938;7.286;2023-07-08T01:53:18;5.90;;;3.03;;
34497;SDS011;20744;50.938;7.286;2023-07-08T01:55:46;5.60;;;2.70;;
34497;SDS011;20744;50.938;7.286;2023-07-08T01:58:14;4.80;;;2.80;;
34497;SDS011;20744;50.938;7.286;2023-07-08T02:00:41;5.30;;;2.75;;
34497;SDS011;20744;50.938;7.286;2023-07-08T02:03:09;4.32;;;3.10;;
34497;SDS011;20744;50.938;7.286;2023-07-08T02:05:36;5.38;;;3.00;;
34497;SDS011;20744;50.938;7.286;2023-07-08T02:08:04;5.65;;;2.92;;
34497;SDS011;20744;50.938;7.286;2023-07-08T02:10:31;3.83;;;2.60;;
34497;SDS011;20744;50.938;7.286;2023-07-08T02:12:59;6.50;;;3.08;;
34497;SDS011;20744;50.938;7.286;2023-07-08T02:15:27;6.07;;;2.75;;
34497;SDS011;20744;50.938;7.286;2023-07-08T02:17:55;9.43;;;2.92;;
34497;SDS011;20744;50.938;7.286;2023-07-08T02:20:22;3.72;;;2.53;;
34497;SDS011;20744;50.938;7.286;2023-07-08T02:22:49;6.13;;;2.80;;
34497;SDS011;20744;50.938;7.286;2023-07-08T02:25:17;5.03;;;2.58;;
34497;SDS011;20744;50.938;7.286;2023-07-08T02:27:44;5.20;;;2.83;;
34497;SDS011;20744;50.938;7.286;2023-07-08T02:30:11;4.75;;;2.83;;
34497;SDS011;20744;50.938;7.286;2023-07-08T02:32:42;5.97;;;2.90;;
34497;SDS011;20744;50.938;7.286;2023-07-08T02:35:14;7.93;;;3.00;;
34497;SDS011;20744;50.938;7.286;2023-07-08T02:37:41;4.32;;;2.65;;
34497;SDS011;20744;50.938;7.286;2023-07-08T02:40:09;4.88;;;2.63;;
34497;SDS011;20744;50.938;7.286;2023-07-08T02:42:36;3.60;;;2.53;;
34497;SDS011;20744;50.938;7.286;2023-07-08T02:45:04;4.00;;;2.65;;
34497;SDS011;20744;50.938;7.286;2023-07-08T02:47:32;4.30;;;2.65;;
34497;SDS011;20744;50.938;7.286;2023-07-08T02:50:01;6.53;;;3.20;;
34497;SDS011;20744;50.938;7.286;2023-07-08T02:52:29;5.93;;;2.90;;
34497;SDS011;20744;50.938;7.286;2023-07-08T02:54:59;5.65;;;3.05;;
34497;SDS011;20744;50.938;7.286;2023-07-08T02:57:26;4.80;;;2.35;;
34497;SDS011;20744;50.938;7.286;2023-07-08T02:59:53;6.50;;;2.78;;
34497;SDS011;20744;50.938;7.286;2023-07-08T03:02:21;3.25;;;2.78;;
34497;SDS011;20744;50.938;7.286;2023-07-08T03:04:48;4.50;;;2.85;;
34497;SDS011;20744;50.938;7.286;2023-07-08T03:07:17;3.45;;;2.47;;
34497;SDS011;20744;50.938;7.286;2023-07-08T03:09:44;6.45;;;2.92;;
34497;SDS011;20744;50.938;7.286;2023-07-08T03:12:12;8.35;;;2.75;;
34497;SDS011;20744;50.938;7.286;2023-07-08T03:14:39;3.03;;;2.38;;
34497;SDS011;20744;50.938;7.286;2023-07-08T03:17:06;4.18;;;2.75;;
34497;SDS011;20744;50.938;7.286;2023-07-08T03:19:33;9.23;;;2.95;;
34497;SDS011;20744;50.938;7.286;2023-07-08T03:22:01;4.55;;;3.08;;
34497;SDS011;20744;50.938;7.286;2023-07-08T03:24:31;5.30;;;2.90;;
34497;SDS011;20744;50.938;7.286;2023-07-08T03:26:59;3.85;;;2.70;;
34497;SDS011;20744;50.938;7.286;2023-07-08T03:29:30;5.97;;;2.83;;
34497;SDS011;20744;50.938;7.286;2023-07-08T03:31:57;6.35;;;2.97;;
34497;SDS011;20744;50.938;7.286;2023-07-08T03:34:24;6.82;;;2.70;;
34497;SDS011;20744;50.938;7.286;2023-07-08T03:36:52;3.83;;;2.60;;
34497;SDS011;20744;50.938;7.286;2023-07-08T03:39:20;9.68;;;2.72;;
34497;SDS011;20744;50.938;7.286;2023-07-08T03:41:49;5.50;;;3.05;;
34497;SDS011;20744;50.938;7.286;2023-07-08T03:44:17;6.20;;;3.13;;
34497;SDS011;20744;50.938;7.286;2023-07-08T03:46:44;5.53;;;2.80;;
34497;SDS011;20744;50.938;7.286;2023-07-08T03:49:13;7.50;;;2.92;;
34497;SDS011;20744;50.938;7.286;2023-07-08T03:51:40;4.88;;;2.95;;
34497;SDS011;20744;50.938;7.286;2023-07-08T03:54:09;6.43;;;2.95;;
34497;SDS011;20744;50.938;7.286;2023-07-08T03:56:37;4.35;;;2.80;;
34497;SDS011;20744;50.938;7.286;2023-07-08T03:59:06;5.93;;;2.50;;
34497;SDS011;20744;50.938;7.286;2023-07-08T04:01:33;5.15;;;2.80;;
34497;SDS011;20744;50.938;7.286;2023-07-08T04:04:00;7.70;;;2.95;;
34497;SDS011;20744;50.938;7.286;2023-07-08T04:06:28;4.95;;;2.92;;
34497;SDS011;20744;50.938;7.286;2023-07-08T04:08:55;5.72;;;2.72;;
34497;SDS011;20744;50.938;7.286;2023-07-08T04:11:23;6.00;;;2.65;;
34497;SDS011;20744;50.938;7.286;2023-07-08T04:13:50;4.68;;;2.70;;
34497;SDS011;20744;50.938;7.286;2023-07-08T04:16:19;4.50;;;2.65;;
34497;SDS011;20744;50.938;7.286;2023-07-08T04:18:47;4.93;;;3.17;;
34497;SDS011;20744;50.938;7.286;2023-07-08T04:21:16;5.10;;;2.80;;
34497;SDS011;20744;50.938;7.286;2023-07-08T04:23:43;4.18;;;2.47;;
34497;SDS011;20744;50.938;7.286;2023-07-08T04:26:10;5.07;;;2.72;;
34497;SDS011;20744;50.938;7.286;2023-07-08T04:28:37;7.88;;;2.47;;
34497;SDS011;20744;50.938;7.286;2023-07-08T04:31:05;5.57;;;2.92;;
34497;SDS011;20744;50.938;7.286;2023-07-08T04:33:34;4.28;;;2.90;;
34497;SDS011;20744;50.938;7.286;2023-07-08T04:36:01;4.65;;;3.08;;
34497;SDS011;20744;50.938;7.286;2023-07-08T04:38:28;3.72;;;2.80;;
34497;SDS011;20744;50.938;7.286;2023-07-08T04:40:57;6.35;;;2.92;;
34497;SDS011;20744;50.938;7.286;2023-07-08T04:43:24;4.38;;;2.65;;
34497;SDS011;20744;50.938;7.286;2023-07-08T04:45:54;3.90;;;2.83;;
34497;SDS011;20744;50.938;7.286;2023-07-08T04:48:22;7.05;;;3.13;;
34497;SDS011;20744;50.938;7.286;2023-07-08T04:50:51;5.90;;;2.75;;
34497;SDS011;20744;50.938;7.286;2023-07-08T04:53:19;6.65;;;2.97;;
34497;SDS011;20744;50.938;7.286;2023-07-08T04:55:47;11.05;;;2.97;;
34497;SDS011;20744;50.938;7.286;2023-07-08T04:58:15;8.98;;;2.90;;
34497;SDS011;20744;50.938;7.286;2023-07-08T05:00:42;5.95;;;3.05;;
34497;SDS011;20744;50.938;7.286;2023-07-08T05:03:09;6.65;;;2.90;;
34497;SDS011;20744;50.938;7.286;2023-07-08T05:05:36;5.32;;;2.70;;
34497;SDS011;20744;50.938;7.286;2023-07-08T05:08:05;11.15;;;2.88;;
34497;SDS011;20744;50.938;7.286;2023-07-08T05:10:33;4.15;;;3.03;;
34497;SDS011;20744;50.938;7.286;2023-07-08T05:13:00;6.97;;;3.10;;
34497;SDS011;20744;50.938;7.286;2023-07-08T05:15:27;4.25;;;2.70;;
34497;SDS011;20744;50.938;7.286;2023-07-08T05:17:55;9.80;;;3.10;;
34497;SDS011;20744;50.938;7.286;2023-07-08T05:20:22;5.88;;;3.05;;
34497;SDS011;20744;50.938;7.286;2023-07-08T05:22:49;5.80;;;3.20;;
34497;SDS011;20744;50.938;7.286;2023-07-08T05:25:18;3.65;;;2.42;;
34497;SDS011;20744;50.938;7.286;2023-07-08T05:27:46;7.40;;;2.70;;
34497;SDS011;20744;50.938;7.286;2023-07-08T05:30:14;4.55;;;2.90;;
34497;SDS011;20744;50.938;7.286;2023-07-08T05:32:42;6.13;;;2.65;;
34497;SDS011;20744;50.938;7.286;2023-07-08T05:35:09;6.88;;;3.10;;
34497;SDS011;20744;50.938;7.286;2023-07-08T05:37:36;7.45;;;2.60;;
34497;SDS011;20744;50.938;7.286;2023-07-08T05:40:05;6.07;;;2.97;;
34497;SDS011;20744;50.938;7.286;2023-07-08T05:42:34;5.90;;;3.20;;
34497;SDS011;20744;50.938;7.286;2023-07-08T05:45:02;7.57;;;3.03;;
34497;SDS011;20744;50.938;7.286;2023-07-08T05:47:31;6.07;;;3.00;;
34497;SDS011;20744;50.938;7.286;2023-07-08T05:49:58;5.45;;;2.92;;
34497;SDS011;20744;50.938;7.286;2023-07-08T05:52:29;4.97;;;3.03;;
34497;SDS011;20744;50.938;7.286;2023-07-08T05:54:56;5.88;;;2.85;;
34497;SDS011;20744;50.938;7.286;2023-07-08T05:57:23;5.47;;;2.90;;
34497;SDS011;20744;50.938;7.286;2023-07-08T05:59:52;5.28;;;3.20;;
34497;SDS011;20744;50.938;7.286;2023-07-08T06:02:19;8.43;;;3.25;;
34497;SDS011;20744;50.938;7.286;2023-07-08T06:04:50;7.53;;;3.30;;
34497;SDS011;20744;50.938;7.286;2023-07-08T06:07:17;7.63;;;2.95;;
34497;SDS011;20744;50.938;7.286;2023-07-08T06:09:44;6.25;;;3.22;;
34497;SDS011;20744;50.938;7.286;2023-07-08T06:12:12;8.10;;;3.00;;
34497;SDS011;20744;50.938;7.286;2023-07-08T06:14:39;5.30;;;3.03;;
34497;SDS011;20744;50.938;7.286;2023-07-08T06:17:08;4.97;;;3.40;;
34497;SDS011;20744;50.938;7.286;2023-07-08T06:19:35;8.20;;;3.17;;
34497;SDS011;20744;50.938;7.286;2023-07-08T06:22:03;8.95;;;2.90;;
34497;SDS011;20744;50.938;7.286;2023-07-08T06:24:30;7.10;;;3.17;;
34497;SDS011;20744;50.938;7.286;2023-07-08T06:26:57;5.40;;;2.83;;
34497;SDS011;20744;50.938;7.286;2023-07-08T06:29:25;4.40;;;2.97;;
34497;SDS011;20744;50.938;7.286;2023-07-08T06:31:53;13.10;;;3.10;;
34497;SDS011;20744;50.938;7.286;2023-07-08T06:34:21;6.05;;;3.20;;
34497;SDS011;20744;50.938;7.286;2023-07-08T06:36:49;7.00;;;3.10;;
34497;SDS011;20744;50.938;7.286;2023-07-08T06:39:17;5.75;;;3.15;;
34497;SDS011;20744;50.938;7.286;2023-07-08T06:41:44;6.47;;;3.00;;
34497;SDS011;20744;50.938;7.286;2023-07-08T06:44:11;5.25;;;3.28;;
34497;SDS011;20744;50.938;7.286;2023-07-08T06:46:38;5.05;;;3.28;;
34497;SDS011;20744;50.938;7.286;2023-07-08T06:49:06;7.75;;;3.60;;
34497;SDS011;20744;50.938;7.286;2023-07-08T06:51:36;6.03;;;3.33;;
34497;SDS011;20744;50.938;7.286;2023-07-08T06:54:04;9.02;;;3.40;;
34497;SDS011;20744;50.938;7.286;2023-07-08T06:56:36;9.40;;;3.83;;
34497;SDS011;20744;50.938;7.286;2023-07-08T06:59:04;9.88;;;3.72;;
34497;SDS011;20744;50.938;7.286;2023-07-08T07:01:31;9.52;;;3.53;;
34497;SDS011;20744;50.938;7.286;2023-07-08T07:03:58;7.65;;;3.38;;
34497;SDS011;20744;50.938;7.286;2023-07-08T07:06:26;6.70;;;3.40;;
34497;SDS011;20744;50.938;7.286;2023-07-08T07:08:55;8.73;;;3.70;;
34497;SDS011;20744;50.938;7.286;2023-07-08T07:11:22;10.85;;;3.58;;
34497;SDS011;20744;50.938;7.286;2023-07-08T07:13:49;8.85;;;3.88;;
34497;SDS011;20744;50.938;7.286;2023-07-08T07:16:16;10.63;;;3.58;;
34497;SDS011;20744;50.938;7.286;2023-07-08T07:18:44;6.82;;;3.40;;
34497;SDS011;20744;50.938;7.286;2023-07-08T07:21:11;5.63;;;4.10;;
34497;SDS011;20744;50.938;7.286;2023-07-08T07:23:38;7.32;;;4.22;;
34497;SDS011;20744;50.938;7.286;2023-07-08T07:26:07;8.80;;;4.10;;
34497;SDS011;20744;50.938;7.286;2023-07-08T07:28:34;8.18;;;4.22;;
34497;SDS011;20744;50.938;7.286;2023-07-08T07:31:02;5.68;;;4.20;;
34497;SDS011;20744;50.938;7.286;2023-07-08T07:33:31;6.97;;;4.53;;
34497;SDS011;20744;50.938;7.286;2023-07-08T07:35:58;9.60;;;4.60;;
34497;SDS011;20744;50.938;7.286;2023-07-08T07:38:25;9.52;;;4.25;;
34497;SDS011;20744;50.938;7.286;2023-07-08T07:40:54;6.65;;;4.13;;
34497;SDS011;20744;50.938;7.286;2023-07-08T07:43:22;6.28;;;4.00;;
34497;SDS011;20744;50.938;7.286;2023-07-08T07:45:50;6.50;;;3.60;;
34497;SDS011;20744;50.938;7.286;2023-07-08T07:48:18;8.75;;;4.45;;
34497;SDS011;20744;50.938;7.286;2023-07-08T07:50:46;8.38;;;4.20;;
34497;SDS011;20744;50.938;7.286;2023-07-08T07:53:13;7.57;;;4.22;;
34497;SDS011;20744;50.938;7.286;2023-07-08T07:55:43;8.98;;;4.32;;
34497;SDS011;20744;50.938;7.286;2023-07-08T07:58:10;8.00;;;4.10;;
34497;SDS011;20744;50.938;7.286;2023-07-08T08:00:39;8.57;;;4.70;;
34497;SDS011;20744;50.938;7.286;2023-07-08T08:03:06;5.20;;;4.30;;
34497;SDS011;20744;50.938;7.286;2023-07-08T08:05:33;7.30;;;4.05;;
34497;SDS011;20744;50.938;7.286;2023-07-08T08:08:01;8.20;;;4.30;;
34497;SDS011;20744;50.938;7.286;2023-07-08T08:10:29;5.57;;;3.83;;
34497;SDS011;20744;50.938;7.286;2023-07-08T08:12:57;6.53;;;4.68;;
34497;SDS011;20744;50.938;7.286;2023-07-08T08:15:24;7.97;;;4.28;;
34497;SDS011;20744;50.938;7.286;2023-07-08T08:17:53;11.00;;;4.30;;
34497;SDS011;20744;50.938;7.286;2023-07-08T08:20:22;8.52;;;4.60;;
34497;SDS011;20744;50.938;7.286;2023-07-08T08:22:49;8.88;;;4.53;;
34497;SDS011;20744;50.938;7.286;2023-07-08T08:25:17;7.45;;;4.20;;
34497;SDS011;20744;50.938;7.286;2023-07-08T08:27:44;6.55;;;4.05;;
34497;SDS011;20744;50.938;7.286;2023-07-08T08:30:12;5.40;;;4.00;;
34497;SDS011;20744;50.938;7.286;2023-07-08T08:32:39;6.63;;;4.30;;
34497;SDS011;20744;50.938;7.286;2023-07-08T08:35:08;5.95;;;3.80;;
34497;SDS011;20744;50.938;7.286;2023-07-08T08:37:35;8.52;;;4.13;;
34497;SDS011;20744;50.938;7.286;2023-07-08T08:40:03;6.53;;;3.85;;
34497;SDS011;20744;50.938;7.286;2023-07-08T08:42:31;8.73;;;3.70;;
34497;SDS011;20744;50.938;7.286;2023-07-08T08:45:00;10.45;;;3.83;;
34497;SDS011;20744;50.938;7.286;2023-07-08T08:47:31;5.75;;;4.05;;
34497;SDS011;20744;50.938;7.286;2023-07-08T08:50:02;8.10;;;3.78;;
34497;SDS011;20744;50.938;7.286;2023-07-08T08:52:32;8.52;;;3.80;;
34497;SDS011;20744;50.938;7.286;2023-07-08T08:54:59;7.10;;;4.15;;
34497;SDS011;20744;50.938;7.286;2023-07-08T08:57:32;6.13;;;3.58;;
34497;SDS011;20744;50.938;7.286;2023-07-08T09:00:01;6.10;;;4.30;;
34497;SDS011;20744;50.938;7.286;2023-07-08T09:02:32;8.68;;;3.83;;
34497;SDS011;20744;50.938;7.286;2023-07-08T09:05:02;7.35;;;4.15;;
34497;SDS011;20744;50.938;7.286;2023-07-08T09:07:33;9.80;;;3.78;;
34497;SDS011;20744;50.938;7.286;2023-07-08T09:10:04;8.18;;;4.20;;
34497;SDS011;20744;50.938;7.286;2023-07-08T09:12:33;5.28;;;3.40;;
34497;SDS011;20744;50.938;7.286;2023-07-08T09:15:01;5.45;;;3.60;;
34497;SDS011;20744;50.938;7.286;2023-07-08T09:17:35;10.40;;;3.80;;
34497;SDS011;20744;50.938;7.286;2023-07-08T09:20:05;4.80;;;3.50;;
34497;SDS011;20744;50.938;7.286;2023-07-08T09:22:36;8.35;;;3.60;;
34497;SDS011;20744;50.938;7.286;2023-07-08T09:27:49;7.47;;;3.70;;
34497;SDS011;20744;50.938;7.286;2023-07-08T09:30:17;5.75;;;3.72;;
34497;SDS011;20744;50.938;7.286;2023-07-08T09:32:45;7.53;;;3.58;;
34497;SDS011;20744;50.938;7.286;2023-07-08T09:35:18;6.47;;;3.25;;
34497;SDS011;20744;50.938;7.286;2023-07-08T09:37:47;6.53;;;3.70;;
34497;SDS011;20744;50.938;7.286;2023-07-08T09:40:15;8.95;;;3.70;;
34497;SDS011;20744;50.938;7.286;2023-07-08T09:42:43;6.43;;;4.07;;
34497;SDS011;20744;50.938;7.286;2023-07-08T09:45:12;6.43;;;3.63;;
34497;SDS011;20744;50.938;7.286;2023-07-08T09:47:39;6.53;;;3.55;;
34497;SDS011;20744;50.938;7.286;2023-07-08T09:50:15;9.13;;;3.63;;
34497;SDS011;20744;50.938;7.286;2023-07-08T09:52:43;11.13;;;4.45;;
34497;SDS011;20744;50.938;7.286;2023-07-08T09:55:11;8.23;;;3.50;;
34497;SDS011;20744;50.938;7.286;2023-07-08T09:57:39;6.43;;;3.35;;
34497;SDS011;20744;50.938;7.286;2023-07-08T10:00:08;6.93;;;3.60;;
34497;SDS011;20744;50.938;7.286;2023-07-08T10:02:38;6.03;;;3.17;;
34497;SDS011;20744;50.938;7.286;2023-07-08T10:05:10;8.13;;;3.45;;
34497;SDS011;20744;50.938;7.286;2023-07-08T10:07:39;7.80;;;3.85;;
34497;SDS011;20744;50.938;7.286;2023-07-08T10:10:07;5.30;;;3.20;;
34497;SDS011;20744;50.938;7.286;2023-07-08T10:12:38;8.43;;;3.75;;
34497;SDS011;20744;50.938;7.286;2023-07-08T10:15:11;7.32;;;3.40;;
34497;SDS011;20744;50.938;7.286;2023-07-08T10:17:40;9.82;;;3.38;;
34497;SDS011;20744;50.938;7.286;2023-07-08T10:20:10;6.63;;;3.17;;
34497;SDS011;20744;50.938;7.286;2023-07-08T10:22:39;5.45;;;3.05;;
34497;SDS011;20744;50.938;7.286;2023-07-08T10:25:11;6.15;;;3.17;;
34497;SDS011;20744;50.938;7.286;2023-07-08T10:27:44;9.93;;;3.13;;
34497;SDS011;20744;50.938;7.286;2023-07-08T10:30:16;6.07;;;3.20;;
34497;SDS011;20744;50.938;7.286;2023-07-08T10:32:49;5.57;;;3.30;;
34497;SDS011;20744;50.938;7.286;2023-07-08T10:35:20;6.68;;;3.60;;
34497;SDS011;20744;50.938;7.286;2023-07-08T10:37:54;7.70;;;3.75;;
34497;SDS011;20744;50.938;7.286;2023-07-08T10:40:29;8.68;;;3.10;;
34497;SDS011;20744;50.938;7.286;2023-07-08T10:43:07;7.57;;;3.15;;
34497;SDS011;20744;50.938;7.286;2023-07-08T10:45:40;8.85;;;3.25;;
34497;SDS011;20744;50.938;7.286;2023-07-08T10:48:15;9.90;;;3.55;;
34497;SDS011;20744;50.938;7.286;2023-07-08T10:50:57;5.28;;;2.80;;
34497;SDS011;20744;50.938;7.286;2023-07-08T10:53:37;6.82;;;2.95;;
34497;SDS011;20744;50.938;7.286;2023-07-08T10:56:12;6.95;;;3.30;;
34497;SDS011;20744;50.938;7.286;2023-07-08T10:58:52;5.88;;;3.33;;
34497;SDS011;20744;50.938;7.286;2023-07-08T11:01:23;6.93;;;3.30;;
34497;SDS011;20744;50.938;7.286;2023-07-08T11:04:06;7.35;;;3.35;;
34497;SDS011;20744;50.938;7.286;2023-07-08T11:06:37;7.22;;;3.40;;
34497;SDS011;20744;50.938;7.286;2023-07-08T11:09:07;5.40;;;3.20;;
34497;SDS011;20744;50.938;7.286;2023-07-08T11:11:38;4.38;;;2.97;;
34497;SDS011;20744;50.938;7.286;2023-07-08T11:14:11;7.35;;;3.40;;
34497;SDS011;20744;50.938;7.286;2023-07-08T11:16:40;6.20;;;3.20;;
34497;SDS011;20744;50.938;7.286;2023-07-08T11:19:10;5.47;;;3.35;;
34497;SDS011;20744;50.938;7.286;2023-07-08T11:21:40;7.57;;;2.95;;
34497;SDS011;20744;50.938;7.286;2023-07-08T11:24:11;8.77;;;3.50;;
34497;SDS011;20744;50.938;7.286;2023-07-08T11:26:41;5.75;;;3.17;;
34497;SDS011;20744;50.938;7.286;2023-07-08T11:29:14;11.85;;;3.42;;
34497;SDS011;20744;50.938;7.286;2023-07-08T11:31:43;5.78;;;3.63;;
34497;SDS011;20744;50.938;7.286;2023-07-08T11:34:11;6.30;;;3.70;;
34497;SDS011;20744;50.938;7.286;2023-07-08T11:36:39;9.23;;;3.60;;
34497;SDS011;20744;50.938;7.286;2023-07-08T11:41:50;7.22;;;3.95;;
34497;SDS011;20744;50.938;7.286;2023-07-08T11:44:21;6.30;;;3.55;;
34497;SDS011;20744;50.938;7.286;2023-07-08T11:46:53;7.13;;;3.70;;
34497;SDS011;20744;50.938;7.286;2023-07-08T11:49:20;8.13;;;3.20;;
34497;SDS011;20744;50.938;7.286;2023-07-08T11:51:48;6.20;;;3.40;;
34497;SDS011;20744;50.938;7.286;2023-07-08T11:54:19;6.22;;;3.30;;
34497;SDS011;20744;50.938;7.286;2023-07-08T11:56:47;7.13;;;3.58;;
34497;SDS011;20744;50.938;7.286;2023-07-08T11:59:16;8.35;;;3.70;;
34497;SDS011;20744;50.938;7.286;2023-07-08T12:01:53;6.43;;;3.45;;
34497;SDS011;20744;50.938;7.286;2023-07-08T12:04:25;7.82;;;3.70;;
34497;SDS011;20744;50.938;7.286;2023-07-08T12:06:54;6.63;;;3.38;;
34497;SDS011;20744;50.938;7.286;2023-07-08T12:09:29;8.30;;;3.83;;
34497;SDS011;20744;50.938;7.286;2023-07-08T12:11:57;6.47;;;3.40;;
34497;SDS011;20744;50.938;7.286;2023-07-08T12:14:27;6.57;;;3.75;;
34497;SDS011;20744;50.938;7.286;2023-07-08T12:16:56;8.75;;;3.47;;
34497;SDS011;20744;50.938;7.286;2023-07-08T12:19:23;5.50;;;3.38;;
34497;SDS011;20744;50.938;7.286;2023-07-08T12:21:53;5.90;;;3.50;;
34497;SDS011;20744;50.938;7.286;2023-07-08T12:24:20;6.45;;;3.55;;
34497;SDS011;20744;50.938;7.286;2023-07-08T12:26:51;10.45;;;3.75;;
34497;SDS011;20744;50.938;7.286;2023-07-08T12:29:21;8.68;;;3.78;;
34497;SDS011;20744;50.938;7.286;2023-07-08T12:31:48;7.38;;;3.80;;
34497;SDS011;20744;50.938;7.286;2023-07-08T12:34:17;5.05;;;3.58;;
34497;SDS011;20744;50.938;7.286;2023-07-08T12:36:47;5.85;;;3.60;;
34497;SDS011;20744;50.938;7.286;2023-07-08T12:39:15;7.75;;;3.70;;
34497;SDS011;20744;50.938;7.286;2023-07-08T12:41:43;7.25;;;3.58;;
34497;SDS011;20744;50.938;7.286;2023-07-08T12:44:14;6.57;;;3.78;;
34497;SDS011;20744;50.938;7.286;2023-07-08T12:46:43;10.18;;;4.35;;
34497;SDS011;20744;50.938;7.286;2023-07-08T12:49:11;10.13;;;3.67;;
34497;SDS011;20744;50.938;7.286;2023-07-08T12:51:42;5.03;;;3.58;;
34497;SDS011;20744;50.938;7.286;2023-07-08T12:54:10;10.25;;;4.20;;
34497;SDS011;20744;50.938;7.286;2023-07-08T12:56:38;12.88;;;3.78;;
34497;SDS011;20744;50.938;7.286;2023-07-08T12:59:05;14.60;;;4.55;;
34497;SDS011;20744;50.938;7.286;2023-07-08T13:01:34;7.95;;;4.20;;
34497;SDS011;20744;50.938;7.286;2023-07-08T13:04:04;6.80;;;4.00;;
34497;SDS011;20744;50.938;7.286;2023-07-08T13:06:32;6.97;;;3.90;;
34497;SDS011;20744;50.938;7.286;2023-07-08T13:09:04;8.55;;;4.10;;
34497;SDS011;20744;50.938;7.286;2023-07-08T13:11:36;9.18;;;3.90;;
34497;SDS011;20744;50.938;7.286;2023-07-08T13:14:04;8.27;;;4.22;;
34497;SDS011;20744;50.938;7.286;2023-07-08T13:16:33;10.50;;;4.00;;
34497;SDS011;20744;50.938;7.286;2023-07-08T13:19:00;5.97;;;4.07;;
34497;SDS011;20744;50.938;7.286;2023-07-08T13:21:28;9.23;;;4.20;;
34497;SDS011;20744;50.938;7.286;2023-07-08T13:23:57;7.45;;;4.30;;
34497;SDS011;20744;50.938;7.286;2023-07-08T13:26:26;13.50;;;4.25;;
34497;SDS011;20744;50.938;7.286;2023-07-08T13:28:58;10.65;;;4.47;;
34497;SDS011;20744;50.938;7.286;2023-07-08T13:31:31;10.27;;;4.68;;
34497;SDS011;20744;50.938;7.286;2023-07-08T13:34:06;10.10;;;3.92;;
34497;SDS011;20744;50.938;7.286;2023-07-08T13:39:01;10.10;;;4.65;;
34497;SDS011;20744;50.938;7.286;2023-07-08T13:41:30;7.10;;;4.03;;
34497;SDS011;20744;50.938;7.286;2023-07-08T13:43:57;13.63;;;4.18;;
34497;SDS011;20744;50.938;7.286;2023-07-08T13:46:30;8.10;;;4.30;;
34497;SDS011;20744;50.938;7.286;2023-07-08T13:49:00;9.60;;;4.40;;
34497;SDS011;20744;50.938;7.286;2023-07-08T13:51:29;9.88;;;4.50;;
34497;SDS011;20744;50.938;7.286;2023-07-08T13:53:58;7.78;;;4.18;;
34497;SDS011;20744;50.938;7.286;2023-07-08T13:56:27;5.85;;;3.95;;
34497;SDS011;20744;50.938;7.286;2023-07-08T13:59:01;5.97;;;4.15;;
34497;SDS011;20744;50.938;7.286;2023-07-08T14:03:56;7.25;;;4.32;;
34497;SDS011;20744;50.938;7.286;2023-07-08T14:06:29;10.52;;;4.70;;
34497;SDS011;20744;50.938;7.286;2023-07-08T14:08:57;5.97;;;3.97;;
34497;SDS011;20744;50.938;7.286;2023-07-08T14:11:25;10.45;;;4.03;;
34497;SDS011;20744;50.938;7.286;2023-07-08T14:13:52;7.00;;;3.92;;
34497;SDS011;20744;50.938;7.286;2023-07-08T14:16:23;7.63;;;4.43;;
34497;SDS011;20744;50.938;7.286;2023-07-08T14:18:52;10.63;;;4.50;;
34497;SDS011;20744;50.938;7.286;2023-07-08T14:21:19;9.50;;;4.47;;
34497;SDS011;20744;50.938;7.286;2023-07-08T14:23:47;6.18;;;4.07;;
34497;SDS011;20744;50.938;7.286;2023-07-08T14:26:14;8.10;;;3.60;;
34497;SDS011;20744;50.938;7.286;2023-07-08T14:28:41;9.00;;;3.75;;
34497;SDS011;20744;50.938;7.286;2023-07-08T14:31:09;11.90;;;4.38;;
34497;SDS011;20744;50.938;7.286;2023-07-08T14:33:38;8.23;;;4.32;;
34497;SDS011;20744;50.938;7.286;2023-07-08T14:36:07;13.65;;;4.40;;
34497;SDS011;20744;50.938;7.286;2023-07-08T14:38:34;13.80;;;4.35;;
34497;SDS011;20744;50.938;7.286;2023-07-08T14:41:01;19.55;;;4.40;;
34497;SDS011;20744;50.938;7.286;2023-07-08T14:43:29;7.88;;;4.40;;
34497;SDS011;20744;50.938;7.286;2023-07-08T14:45:57;10.80;;;4.60;;
34497;SDS011;20744;50.938;7.286;2023-07-08T14:48:26;7.80;;;3.90;;
34497;SDS011;20744;50.938;7.286;2023-07-08T14:50:55;9.73;;;4.15;;
34497;SDS011;20744;50.938;7.286;2023-07-08T14:53:24;12.25;;;4.35;;
34497;SDS011;20744;50.938;7.286;2023-07-08T14:55:53;8.55;;;4.78;;
34497;SDS011;20744;50.938;7.286;2023-07-08T14:58:22;8.75;;;4.20;;
34497;SDS011;20744;50.938;7.286;2023-07-08T15:00:50;13.95;;;4.80;;
34497;SDS011;20744;50.938;7.286;2023-07-08T15:03:18;9.93;;;4.63;;
34497;SDS011;20744;50.938;7.286;2023-07-08T15:05:45;9.90;;;4.40;;